CFG8WK EDDH-LEMG
Flight info
| Callsign | CFG8WK |
|---|---|
| Flight time | 3h 17m |
| Altitude | 36000 |
| Route | HABFU1G/33 HABFU Y348 DOMEG DCT LNO DCT RASCA DCT FAMEN/N0442F350 DCT AHVEC DCT RESMI DCT DEKOD/N0441F370 DCT DISAK DCT ARKIP DCT ARNAV DCT LMG DCT UVELI DCT OSMOB DCT ARVID DCT PPN DCT NOLSA DCT ALEPO DCT VASUM N10 CJN L27 BLN |
| Aircraft | A320/M-SDE3FGHIRWY/LB1 |
Departure
| Time | 2026-04-24 16:56 |
|---|---|
| Airport | Hamburg Helmut Schmidt Airport (EDDH) |
Arrival
| Time | 2026-04-24 20:14 |
|---|---|
| Airport | Málaga-Costa del Sol Airport (LEMG) |
| Time | Latitude | Longitude | Altitude | Speed | Heading |
|---|---|---|---|---|---|
| 2026-04-24 16:34 | 53.62926 | 10.00286 | 46 ft | 0 kts | 110° |
| 2026-04-24 16:48 | 53.62927 | 10.00282 | 46 ft | 3 kts | 111° |
| 2026-04-24 16:48 | 53.62939 | 10.00251 | 42 ft | 4 kts | 155° |
| 2026-04-24 16:48 | 53.62962 | 10.00237 | 46 ft | 4 kts | 139° |
| 2026-04-24 16:48 | 53.62974 | 10.00239 | 44 ft | 4 kts | 234° |
| 2026-04-24 16:49 | 53.62973 | 10.00201 | 46 ft | 4 kts | 270° |
| 2026-04-24 16:49 | 53.62967 | 10.00161 | 44 ft | 4 kts | 243° |
| 2026-04-24 16:49 | 53.62954 | 10.00140 | 45 ft | 0 kts | 214° |
| 2026-04-24 16:52 | 53.62928 | 10.00110 | 46 ft | 6 kts | 212° |
| 2026-04-24 16:53 | 53.62897 | 10.00077 | 45 ft | 4 kts | 212° |
| 2026-04-24 16:53 | 53.62877 | 10.00055 | 44 ft | 2 kts | 218° |
| 2026-04-24 16:53 | 53.62864 | 10.00032 | 46 ft | 6 kts | 224° |
| 2026-04-24 16:53 | 53.62837 | 9.99994 | 44 ft | 4 kts | 215° |
| 2026-04-24 16:54 | 53.62824 | 9.99979 | 47 ft | 0 kts | 218° |
| 2026-04-24 16:54 | 53.62828 | 9.99964 | 47 ft | 2 kts | 298° |
| 2026-04-24 16:54 | 53.62834 | 9.99934 | 47 ft | 3 kts | 269° |
| 2026-04-24 16:54 | 53.62819 | 9.99873 | 45 ft | 7 kts | 244° |
| 2026-04-24 16:55 | 53.62817 | 9.99791 | 47 ft | 8 kts | 307° |
| 2026-04-24 16:55 | 53.62870 | 9.99742 | 47 ft | 9 kts | 334° |
| 2026-04-24 16:55 | 53.62932 | 9.99689 | 47 ft | 13 kts | 332° |
| 2026-04-24 16:55 | 53.63156 | 9.99493 | 45 ft | 68 kts | 333° |
| 2026-04-24 16:56 | 53.63762 | 9.98971 | 41 ft | 126 kts | 333° |
| 2026-04-24 16:56 | 53.64704 | 9.98139 | 176 ft | 171 kts | 327° |
| 2026-04-24 16:56 | 53.65794 | 9.97220 | 860 ft | 182 kts | 330° |
| 2026-04-24 16:56 | 53.66980 | 9.96243 | 1686 ft | 192 kts | 330° |
| 2026-04-24 16:57 | 53.68187 | 9.95203 | 2584 ft | 194 kts | 331° |
| 2026-04-24 16:57 | 53.69380 | 9.94174 | 3304 ft | 196 kts | 332° |
| 2026-04-24 16:57 | 53.70594 | 9.93084 | 3998 ft | 199 kts | 325° |
| 2026-04-24 16:57 | 53.71435 | 9.91240 | 4630 ft | 208 kts | 291° |
| 2026-04-24 16:58 | 53.71437 | 9.88637 | 4933 ft | 241 kts | 263° |
| 2026-04-24 16:58 | 53.70955 | 9.85748 | 5003 ft | 263 kts | 257° |
| 2026-04-24 16:58 | 53.70345 | 9.82791 | 5086 ft | 269 kts | 255° |
| 2026-04-24 16:58 | 53.69702 | 9.79842 | 5840 ft | 272 kts | 255° |
| 2026-04-24 16:59 | 53.69052 | 9.76823 | 6648 ft | 275 kts | 256° |
| 2026-04-24 16:59 | 53.68410 | 9.73759 | 7412 ft | 278 kts | 256° |
| 2026-04-24 16:59 | 53.67152 | 9.67522 | 9021 ft | 282 kts | 257° |
| 2026-04-24 17:00 | 53.66534 | 9.64407 | 9805 ft | 283 kts | 257° |
| 2026-04-24 17:00 | 53.64740 | 9.58424 | 10167 ft | 298 kts | 234° |
| 2026-04-24 17:00 | 53.63103 | 9.55976 | 10190 ft | 333 kts | 217° |
| 2026-04-24 17:01 | 53.58866 | 9.52043 | 10188 ft | 369 kts | 212° |
| 2026-04-24 17:01 | 53.56562 | 9.49940 | 10191 ft | 390 kts | 212° |
| 2026-04-24 17:02 | 53.51711 | 9.45528 | 10190 ft | 397 kts | 212° |
| 2026-04-24 17:02 | 53.49273 | 9.43315 | 10186 ft | 397 kts | 212° |
| 2026-04-24 17:02 | 53.46839 | 9.41106 | 10188 ft | 397 kts | 212° |
| 2026-04-24 17:02 | 53.44404 | 9.38895 | 10203 ft | 399 kts | 212° |
| 2026-04-24 17:03 | 53.39516 | 9.34451 | 11485 ft | 403 kts | 212° |
| 2026-04-24 17:03 | 53.37036 | 9.32204 | 12130 ft | 405 kts | 211° |
| 2026-04-24 17:03 | 53.34548 | 9.29948 | 12770 ft | 407 kts | 211° |
| 2026-04-24 17:04 | 53.31930 | 9.28017 | 13390 ft | 414 kts | 200° |
| 2026-04-24 17:04 | 53.26239 | 9.26128 | 14553 ft | 421 kts | 192° |
| 2026-04-24 17:04 | 53.23346 | 9.25279 | 15204 ft | 421 kts | 192° |
| 2026-04-24 17:05 | 53.20438 | 9.24423 | 15680 ft | 425 kts | 192° |
| 2026-04-24 17:05 | 53.17542 | 9.23567 | 16191 ft | 427 kts | 193° |
| 2026-04-24 17:05 | 53.11649 | 9.21812 | 17206 ft | 432 kts | 193° |
| 2026-04-24 17:06 | 53.08679 | 9.20926 | 17694 ft | 434 kts | 193° |
| 2026-04-24 17:06 | 53.02687 | 9.19150 | 18620 ft | 439 kts | 193° |
| 2026-04-24 17:06 | 52.99705 | 9.18269 | 19016 ft | 441 kts | 193° |
| 2026-04-24 17:07 | 52.97696 | 9.17676 | 19270 ft | 442 kts | 193° |
| 2026-04-24 17:07 | 52.93776 | 9.15716 | 19771 ft | 438 kts | 208° |
| 2026-04-24 17:07 | 52.88387 | 9.11054 | 20521 ft | 439 kts | 211° |
| 2026-04-24 17:08 | 52.82972 | 9.06295 | 21236 ft | 441 kts | 211° |
| 2026-04-24 17:08 | 52.80248 | 9.03904 | 21583 ft | 443 kts | 211° |
| 2026-04-24 17:08 | 52.77516 | 9.01516 | 21901 ft | 444 kts | 211° |
| 2026-04-24 17:09 | 52.72274 | 8.96978 | 24014 ft | 413 kts | 211° |
| 2026-04-24 17:09 | 52.67203 | 8.92588 | 25025 ft | 409 kts | 212° |
| 2026-04-24 17:10 | 52.65537 | 8.91139 | 25291 ft | 409 kts | 212° |
| 2026-04-24 17:10 | 52.57118 | 8.83821 | 26511 ft | 412 kts | 212° |
| 2026-04-24 17:11 | 52.49475 | 8.77216 | 27528 ft | 416 kts | 212° |
| 2026-04-24 17:12 | 52.36592 | 8.66165 | 29116 ft | 421 kts | 212° |
| 2026-04-24 18:54 | 42.71724 | -1.71332 | 37098 ft | 420 kts | 206° |
| 2026-04-24 18:55 | 42.63888 | -1.76610 | 37098 ft | 420 kts | 206° |
| 2026-04-24 18:56 | 42.58627 | -1.80120 | 37093 ft | 420 kts | 206° |
| 2026-04-24 18:56 | 42.53418 | -1.83610 | 37101 ft | 419 kts | 206° |
| 2026-04-24 18:57 | 42.48182 | -1.87127 | 37101 ft | 419 kts | 206° |
| 2026-04-24 18:57 | 42.42931 | -1.90631 | 37100 ft | 419 kts | 206° |
| 2026-04-24 18:58 | 42.37728 | -1.94101 | 37101 ft | 419 kts | 206° |
| 2026-04-24 18:58 | 42.32476 | -1.97593 | 37096 ft | 419 kts | 206° |
| 2026-04-24 18:59 | 42.27262 | -2.01063 | 37103 ft | 419 kts | 206° |
| 2026-04-24 18:59 | 42.22011 | -2.04535 | 37103 ft | 419 kts | 205° |
| 2026-04-24 19:00 | 42.16794 | -2.07973 | 37105 ft | 419 kts | 206° |
| 2026-04-24 19:00 | 42.11545 | -2.11447 | 37113 ft | 419 kts | 206° |
| 2026-04-24 19:01 | 42.06307 | -2.14906 | 37131 ft | 418 kts | 205° |
| 2026-04-24 19:01 | 42.01100 | -2.18330 | 37129 ft | 418 kts | 205° |
| 2026-04-24 19:02 | 41.95866 | -2.21777 | 37120 ft | 418 kts | 206° |
| 2026-04-24 19:02 | 41.90624 | -2.25216 | 37109 ft | 419 kts | 206° |
| 2026-04-24 19:03 | 41.85399 | -2.28630 | 37110 ft | 420 kts | 206° |
| 2026-04-24 19:03 | 41.80135 | -2.32060 | 37129 ft | 420 kts | 205° |
| 2026-04-24 19:04 | 41.74874 | -2.35490 | 37126 ft | 420 kts | 205° |
| 2026-04-24 19:04 | 41.69605 | -2.38917 | 37125 ft | 420 kts | 205° |
| 2026-04-24 19:05 | 41.64369 | -2.42320 | 37121 ft | 420 kts | 205° |
| 2026-04-24 19:05 | 41.59134 | -2.45711 | 37124 ft | 420 kts | 205° |
| 2026-04-24 19:06 | 41.53868 | -2.49122 | 37124 ft | 420 kts | 205° |
| 2026-04-24 19:06 | 41.48606 | -2.52525 | 37128 ft | 419 kts | 204° |
| 2026-04-24 19:07 | 41.43373 | -2.55899 | 37130 ft | 419 kts | 204° |
| 2026-04-24 19:07 | 41.38105 | -2.59287 | 37125 ft | 419 kts | 204° |
| 2026-04-24 19:08 | 41.32727 | -2.62088 | 37122 ft | 417 kts | 191° |
| 2026-04-24 19:08 | 41.26950 | -2.62508 | 37116 ft | 416 kts | 176° |
| 2026-04-24 19:09 | 41.21188 | -2.61977 | 37106 ft | 417 kts | 176° |
| 2026-04-24 19:09 | 41.15380 | -2.61460 | 36637 ft | 418 kts | 176° |
| 2026-04-24 19:09 | 41.12498 | -2.61207 | 36119 ft | 418 kts | 176° |
| 2026-04-24 19:10 | 41.09591 | -2.60949 | 35661 ft | 419 kts | 176° |
| 2026-04-24 19:10 | 41.06659 | -2.60690 | 35207 ft | 420 kts | 176° |
| 2026-04-24 19:10 | 41.03767 | -2.60436 | 34764 ft | 421 kts | 176° |
| 2026-04-24 19:10 | 41.00826 | -2.60176 | 34325 ft | 422 kts | 176° |
| 2026-04-24 19:11 | 40.97902 | -2.59916 | 33867 ft | 420 kts | 176° |
| 2026-04-24 19:11 | 40.94992 | -2.59656 | 33369 ft | 417 kts | 176° |
| 2026-04-24 19:11 | 40.92096 | -2.59394 | 32893 ft | 415 kts | 176° |
| 2026-04-24 19:11 | 40.89255 | -2.59139 | 32424 ft | 412 kts | 176° |
| 2026-04-24 19:12 | 40.86384 | -2.58878 | 31951 ft | 409 kts | 176° |
| 2026-04-24 19:12 | 40.83547 | -2.58616 | 31492 ft | 406 kts | 176° |
| 2026-04-24 19:12 | 40.80728 | -2.58359 | 31043 ft | 404 kts | 176° |
| 2026-04-24 19:12 | 40.77934 | -2.58106 | 30599 ft | 401 kts | 176° |
| 2026-04-24 19:13 | 40.76094 | -2.57941 | 30313 ft | 400 kts | 176° |
| 2026-04-24 19:13 | 40.72415 | -2.57611 | 29664 ft | 397 kts | 176° |
| 2026-04-24 19:13 | 40.69662 | -2.57365 | 29155 ft | 395 kts | 176° |
| 2026-04-24 19:13 | 40.66932 | -2.57121 | 28665 ft | 392 kts | 176° |
| 2026-04-24 19:14 | 40.64206 | -2.56879 | 28265 ft | 390 kts | 176° |
| 2026-04-24 19:14 | 40.61533 | -2.56639 | 27897 ft | 388 kts | 176° |
| 2026-04-24 19:14 | 40.58833 | -2.56398 | 27530 ft | 386 kts | 176° |
| 2026-04-24 19:14 | 40.56147 | -2.56159 | 27169 ft | 385 kts | 176° |
| 2026-04-24 19:15 | 40.53509 | -2.55923 | 26812 ft | 383 kts | 176° |
| 2026-04-24 19:15 | 40.50850 | -2.55685 | 26460 ft | 382 kts | 176° |
| 2026-04-24 19:15 | 40.48207 | -2.55449 | 26108 ft | 380 kts | 176° |
| 2026-04-24 19:15 | 40.45573 | -2.55215 | 25769 ft | 378 kts | 176° |
| 2026-04-24 19:16 | 40.40337 | -2.54784 | 25093 ft | 373 kts | 179° |
| 2026-04-24 19:16 | 40.37778 | -2.54964 | 24767 ft | 372 kts | 187° |
| 2026-04-24 19:16 | 40.35230 | -2.55608 | 24434 ft | 371 kts | 194° |
| 2026-04-24 19:17 | 40.32783 | -2.56687 | 24111 ft | 370 kts | 200° |
| 2026-04-24 19:17 | 40.30376 | -2.57914 | 23794 ft | 369 kts | 200° |
| 2026-04-24 19:17 | 40.28012 | -2.59106 | 23439 ft | 367 kts | 200° |
| 2026-04-24 19:17 | 40.25622 | -2.60305 | 23061 ft | 366 kts | 200° |
| 2026-04-24 19:18 | 40.23248 | -2.61495 | 22691 ft | 364 kts | 200° |
| 2026-04-24 19:18 | 40.20876 | -2.62681 | 22326 ft | 363 kts | 199° |
| 2026-04-24 19:18 | 40.18512 | -2.63859 | 21956 ft | 362 kts | 199° |
| 2026-04-24 19:18 | 40.16188 | -2.65017 | 21604 ft | 361 kts | 199° |
| 2026-04-24 19:19 | 40.13843 | -2.66189 | 21243 ft | 360 kts | 199° |
| 2026-04-24 19:19 | 40.11506 | -2.67359 | 20896 ft | 359 kts | 199° |
| 2026-04-24 19:19 | 40.09177 | -2.68525 | 20546 ft | 357 kts | 199° |
| 2026-04-24 19:19 | 40.06860 | -2.69683 | 20208 ft | 356 kts | 199° |
| 2026-04-24 19:20 | 40.04547 | -2.70833 | 20068 ft | 354 kts | 199° |
| 2026-04-24 19:20 | 40.02236 | -2.71980 | 20091 ft | 355 kts | 199° |
| 2026-04-24 19:20 | 39.99923 | -2.73130 | 20091 ft | 356 kts | 199° |
| 2026-04-24 19:20 | 39.97632 | -2.74271 | 20100 ft | 357 kts | 199° |
| 2026-04-24 19:21 | 39.95312 | -2.75428 | 20094 ft | 357 kts | 199° |
| 2026-04-24 19:21 | 39.92988 | -2.76586 | 20091 ft | 357 kts | 199° |
| 2026-04-24 19:21 | 39.90661 | -2.77745 | 20094 ft | 357 kts | 199° |
| 2026-04-24 19:21 | 39.88338 | -2.78902 | 20094 ft | 357 kts | 199° |
| 2026-04-24 19:22 | 39.86795 | -2.79667 | 20096 ft | 357 kts | 199° |
| 2026-04-24 19:22 | 39.83712 | -2.81193 | 20101 ft | 357 kts | 199° |
| 2026-04-24 19:22 | 39.81385 | -2.82347 | 20097 ft | 357 kts | 199° |
| 2026-04-24 19:22 | 39.79051 | -2.83503 | 20096 ft | 357 kts | 199° |
| 2026-04-24 19:23 | 39.76716 | -2.84657 | 20101 ft | 358 kts | 198° |
| 2026-04-24 19:23 | 39.74406 | -2.85797 | 20097 ft | 359 kts | 198° |
| 2026-04-24 19:23 | 39.72066 | -2.86953 | 20097 ft | 359 kts | 199° |
| 2026-04-24 19:23 | 39.69725 | -2.88111 | 20097 ft | 359 kts | 199° |
| 2026-04-24 19:24 | 39.67381 | -2.89269 | 20104 ft | 359 kts | 199° |
| 2026-04-24 19:24 | 39.65050 | -2.90417 | 20088 ft | 359 kts | 198° |
| 2026-04-24 19:24 | 39.62736 | -2.91555 | 20093 ft | 359 kts | 198° |
| 2026-04-24 19:24 | 39.60395 | -2.92704 | 20089 ft | 359 kts | 198° |
| 2026-04-24 19:25 | 39.58053 | -2.93853 | 20090 ft | 359 kts | 198° |
| 2026-04-24 19:25 | 39.55711 | -2.95003 | 20091 ft | 359 kts | 198° |
| 2026-04-24 19:25 | 39.53377 | -2.96154 | 19998 ft | 360 kts | 198° |
| 2026-04-24 19:25 | 39.51040 | -2.97310 | 19779 ft | 358 kts | 198° |
| 2026-04-24 19:26 | 39.48735 | -2.98448 | 19558 ft | 358 kts | 198° |
| 2026-04-24 19:26 | 39.46401 | -2.99594 | 19345 ft | 357 kts | 198° |
| 2026-04-24 19:26 | 39.44093 | -3.00725 | 19131 ft | 356 kts | 198° |
| 2026-04-24 19:26 | 39.41765 | -3.01865 | 18919 ft | 356 kts | 198° |
| 2026-04-24 19:27 | 39.39447 | -3.02999 | 18712 ft | 356 kts | 198° |
| 2026-04-24 19:27 | 39.37132 | -3.04131 | 18500 ft | 355 kts | 198° |
| 2026-04-24 19:27 | 39.34844 | -3.05248 | 18285 ft | 355 kts | 198° |
| 2026-04-24 19:27 | 39.32539 | -3.06370 | 18039 ft | 352 kts | 198° |
| 2026-04-24 19:28 | 39.30239 | -3.07490 | 17807 ft | 350 kts | 198° |
| 2026-04-24 19:28 | 39.27958 | -3.08601 | 17563 ft | 349 kts | 198° |
| 2026-04-24 19:28 | 39.25716 | -3.09695 | 17344 ft | 348 kts | 198° |
| 2026-04-24 19:28 | 39.23453 | -3.10799 | 17101 ft | 347 kts | 198° |
| 2026-04-24 19:29 | 39.18935 | -3.12999 | 16637 ft | 345 kts | 198° |
| 2026-04-24 19:29 | 39.16714 | -3.14076 | 16416 ft | 344 kts | 198° |
| 2026-04-24 19:29 | 39.14470 | -3.15161 | 16193 ft | 344 kts | 198° |
| 2026-04-24 19:30 | 39.12229 | -3.16242 | 15958 ft | 343 kts | 198° |
| 2026-04-24 19:30 | 39.09988 | -3.17319 | 15734 ft | 342 kts | 198° |
| 2026-04-24 19:30 | 39.07782 | -3.18381 | 15529 ft | 342 kts | 198° |
| 2026-04-24 19:30 | 39.05551 | -3.19455 | 15303 ft | 342 kts | 198° |
| 2026-04-24 19:31 | 39.03322 | -3.20528 | 15086 ft | 341 kts | 198° |
| 2026-04-24 19:31 | 39.01094 | -3.21601 | 14871 ft | 339 kts | 199° |
| 2026-04-24 19:31 | 38.98902 | -3.22658 | 14659 ft | 339 kts | 199° |
| 2026-04-24 19:31 | 38.96679 | -3.23728 | 14438 ft | 339 kts | 199° |
| 2026-04-24 19:32 | 38.94466 | -3.24795 | 14227 ft | 339 kts | 199° |
| 2026-04-24 19:32 | 38.92285 | -3.25847 | 14018 ft | 338 kts | 199° |
| 2026-04-24 19:32 | 38.90086 | -3.26905 | 13635 ft | 335 kts | 199° |
| 2026-04-24 19:32 | 38.87904 | -3.27954 | 13229 ft | 335 kts | 199° |
| 2026-04-24 19:33 | 38.85701 | -3.29011 | 13532 ft | 338 kts | 199° |
| 2026-04-24 19:33 | 38.83520 | -3.30058 | 14324 ft | 340 kts | 199° |
| 2026-04-24 19:33 | 38.81294 | -3.31128 | 15039 ft | 343 kts | 199° |
| 2026-04-24 19:33 | 38.79046 | -3.32206 | 15745 ft | 345 kts | 199° |
| 2026-04-24 19:34 | 38.76779 | -3.33290 | 16457 ft | 347 kts | 199° |
| 2026-04-24 19:34 | 38.74535 | -3.34363 | 17149 ft | 349 kts | 198° |
| 2026-04-24 19:34 | 38.72254 | -3.35451 | 17848 ft | 351 kts | 198° |
| 2026-04-24 19:34 | 38.69953 | -3.36552 | 18517 ft | 353 kts | 198° |
| 2026-04-24 19:35 | 38.67633 | -3.37664 | 19091 ft | 356 kts | 198° |
| 2026-04-24 19:35 | 38.65322 | -3.38766 | 19647 ft | 359 kts | 198° |
| 2026-04-24 19:35 | 38.62970 | -3.39889 | 20210 ft | 362 kts | 198° |
| 2026-04-24 19:35 | 38.60595 | -3.41022 | 20771 ft | 365 kts | 199° |
| 2026-04-24 19:36 | 38.58229 | -3.42149 | 21292 ft | 369 kts | 199° |
| 2026-04-24 19:36 | 38.55800 | -3.43303 | 21832 ft | 372 kts | 199° |
| 2026-04-24 19:36 | 38.53362 | -3.44461 | 22404 ft | 374 kts | 199° |
| 2026-04-24 19:36 | 38.50934 | -3.45616 | 22957 ft | 377 kts | 199° |
| 2026-04-24 19:37 | 38.48462 | -3.46790 | 23501 ft | 380 kts | 198° |
| 2026-04-24 19:37 | 38.45966 | -3.47973 | 23980 ft | 383 kts | 198° |
| 2026-04-24 19:37 | 38.43451 | -3.49163 | 24436 ft | 386 kts | 198° |
| 2026-04-24 19:37 | 38.40948 | -3.50346 | 24899 ft | 388 kts | 198° |
| 2026-04-24 19:38 | 38.38401 | -3.51551 | 25380 ft | 391 kts | 198° |
| 2026-04-24 19:38 | 38.35842 | -3.52763 | 25856 ft | 393 kts | 198° |
| 2026-04-24 19:38 | 38.33261 | -3.53988 | 26317 ft | 396 kts | 198° |
| 2026-04-24 19:38 | 38.30666 | -3.55217 | 26769 ft | 398 kts | 198° |
| 2026-04-24 19:39 | 38.28094 | -3.56431 | 27200 ft | 400 kts | 198° |
| 2026-04-24 19:39 | 38.25474 | -3.57665 | 27626 ft | 403 kts | 198° |
| 2026-04-24 19:39 | 38.22836 | -3.58906 | 28008 ft | 406 kts | 198° |
| 2026-04-24 19:40 | 38.17642 | -3.61793 | 28270 ft | 409 kts | 210° |
| 2026-04-24 19:40 | 38.15312 | -3.63912 | 28685 ft | 414 kts | 219° |
| 2026-04-24 19:40 | 38.13251 | -3.66491 | 29084 ft | 419 kts | 227° |
| 2026-04-24 19:40 | 38.11500 | -3.69482 | 29439 ft | 423 kts | 234° |
| 2026-04-24 19:41 | 38.09863 | -3.72559 | 29796 ft | 426 kts | 234° |
| 2026-04-24 19:41 | 38.08188 | -3.75691 | 30058 ft | 429 kts | 234° |
| 2026-04-24 19:41 | 38.07070 | -3.77773 | 30096 ft | 429 kts | 234° |
| 2026-04-24 19:42 | 38.03153 | -3.85053 | 30093 ft | 430 kts | 233° |
| 2026-04-24 19:42 | 38.00342 | -3.90264 | 30101 ft | 430 kts | 233° |
| 2026-04-24 19:43 | 37.96413 | -3.97551 | 30098 ft | 430 kts | 233° |
| 2026-04-24 19:43 | 37.93598 | -4.02765 | 30098 ft | 430 kts | 233° |
| 2026-04-24 19:44 | 37.90211 | -4.09024 | 30094 ft | 430 kts | 233° |
| 2026-04-24 19:44 | 37.86829 | -4.15252 | 29627 ft | 425 kts | 233° |
| 2026-04-24 19:44 | 37.85159 | -4.18324 | 29102 ft | 421 kts | 233° |
| 2026-04-24 19:45 | 37.83506 | -4.21367 | 28576 ft | 417 kts | 233° |
| 2026-04-24 19:45 | 37.81887 | -4.24346 | 28067 ft | 413 kts | 233° |
| 2026-04-24 19:45 | 37.80260 | -4.27335 | 27569 ft | 410 kts | 233° |
| 2026-04-24 19:45 | 37.78642 | -4.30302 | 27072 ft | 407 kts | 233° |
| 2026-04-24 19:46 | 37.77039 | -4.33236 | 26593 ft | 404 kts | 233° |
| 2026-04-24 19:46 | 37.75446 | -4.36151 | 26130 ft | 401 kts | 233° |
| 2026-04-24 19:46 | 37.73881 | -4.39013 | 25684 ft | 398 kts | 233° |
| 2026-04-24 19:46 | 37.72305 | -4.41891 | 25233 ft | 395 kts | 233° |
| 2026-04-24 19:47 | 37.70747 | -4.44739 | 24788 ft | 392 kts | 234° |
| 2026-04-24 19:47 | 37.69198 | -4.47565 | 24349 ft | 390 kts | 234° |
| 2026-04-24 19:47 | 37.67678 | -4.50333 | 23917 ft | 387 kts | 234° |
| 2026-04-24 19:47 | 37.66146 | -4.53119 | 23444 ft | 384 kts | 234° |
| 2026-04-24 19:48 | 37.64622 | -4.55871 | 23116 ft | 377 kts | 231° |
| 2026-04-24 19:48 | 37.62879 | -4.58272 | 23101 ft | 364 kts | 219° |
| 2026-04-24 19:48 | 37.58695 | -4.61690 | 23103 ft | 359 kts | 208° |
| 2026-04-24 19:49 | 37.54340 | -4.64792 | 23100 ft | 359 kts | 207° |
| 2026-04-24 19:49 | 37.49705 | -4.66689 | 22397 ft | 349 kts | 183° |
| 2026-04-24 19:50 | 37.42486 | -4.66664 | 21124 ft | 342 kts | 178° |
| 2026-04-24 19:50 | 37.40139 | -4.66593 | 20715 ft | 339 kts | 172° |
| 2026-04-24 19:51 | 37.35724 | -4.64796 | 20095 ft | 336 kts | 148° |
| 2026-04-24 19:51 | 37.33704 | -4.63295 | 20102 ft | 338 kts | 149° |
| 2026-04-24 19:52 | 37.29641 | -4.60316 | 20102 ft | 339 kts | 149° |
| 2026-04-24 19:52 | 37.27533 | -4.58963 | 20099 ft | 341 kts | 159° |
| 2026-04-24 19:52 | 37.25224 | -4.58244 | 20103 ft | 343 kts | 173° |
| 2026-04-24 19:52 | 37.22843 | -4.58133 | 19913 ft | 341 kts | 179° |
| 2026-04-24 19:53 | 37.20508 | -4.58114 | 19521 ft | 339 kts | 179° |
| 2026-04-24 19:53 | 37.18147 | -4.58099 | 19139 ft | 337 kts | 179° |
| 2026-04-24 19:53 | 37.13463 | -4.58076 | 18418 ft | 334 kts | 180° |
| 2026-04-24 19:54 | 37.11168 | -4.58062 | 17995 ft | 323 kts | 180° |
| 2026-04-24 19:54 | 37.08979 | -4.58044 | 17737 ft | 307 kts | 180° |
| 2026-04-24 19:54 | 37.06885 | -4.58028 | 17235 ft | 301 kts | 180° |
| 2026-04-24 19:54 | 37.04802 | -4.58011 | 16660 ft | 298 kts | 180° |
| 2026-04-24 19:55 | 37.03431 | -4.57999 | 16295 ft | 296 kts | 180° |
| 2026-04-24 19:55 | 37.00679 | -4.57979 | 15555 ft | 294 kts | 179° |
| 2026-04-24 19:55 | 36.98631 | -4.57964 | 14999 ft | 293 kts | 179° |
| 2026-04-24 19:55 | 36.96609 | -4.57992 | 14578 ft | 286 kts | 187° |
| 2026-04-24 19:56 | 36.94801 | -4.58825 | 14199 ft | 276 kts | 219° |
| 2026-04-24 19:56 | 36.93618 | -4.60644 | 13691 ft | 269 kts | 250° |
| 2026-04-24 19:56 | 36.93295 | -4.62889 | 13107 ft | 265 kts | 271° |
| 2026-04-24 19:56 | 36.93287 | -4.65200 | 12501 ft | 266 kts | 274° |
| 2026-04-24 19:57 | 36.93715 | -4.67399 | 11957 ft | 258 kts | 303° |
| 2026-04-24 19:57 | 36.94927 | -4.68980 | 11411 ft | 251 kts | 333° |
| 2026-04-24 19:57 | 36.96566 | -4.69586 | 10892 ft | 246 kts | 359° |
| 2026-04-24 19:57 | 36.98277 | -4.69612 | 10342 ft | 245 kts | 1° |
| 2026-04-24 19:58 | 36.99936 | -4.69623 | 10074 ft | 235 kts | 1° |
| 2026-04-24 19:58 | 37.01571 | -4.69632 | 10024 ft | 233 kts | 1° |
| 2026-04-24 19:58 | 37.03199 | -4.69640 | 10031 ft | 233 kts | 1° |
| 2026-04-24 19:58 | 37.04828 | -4.69651 | 10033 ft | 233 kts | 0° |
| 2026-04-24 19:59 | 37.06455 | -4.69665 | 10015 ft | 233 kts | 0° |
| 2026-04-24 19:59 | 37.08075 | -4.69679 | 9715 ft | 231 kts | 0° |
| 2026-04-24 19:59 | 37.09666 | -4.69697 | 9370 ft | 230 kts | 0° |
| 2026-04-24 19:59 | 37.11263 | -4.69715 | 9079 ft | 227 kts | 0° |
| 2026-04-24 20:00 | 37.12850 | -4.69731 | 9025 ft | 228 kts | 0° |
| 2026-04-24 20:00 | 37.14454 | -4.69747 | 9027 ft | 230 kts | 0° |
| 2026-04-24 20:00 | 37.16039 | -4.69764 | 9030 ft | 230 kts | 0° |
| 2026-04-24 20:00 | 37.17640 | -4.69815 | 8946 ft | 229 kts | 353° |
| 2026-04-24 20:01 | 37.19080 | -4.70618 | 8588 ft | 230 kts | 318° |
| 2026-04-24 20:01 | 37.19901 | -4.72330 | 8203 ft | 234 kts | 283° |
| 2026-04-24 20:01 | 37.19967 | -4.74348 | 8028 ft | 236 kts | 271° |
| 2026-04-24 20:01 | 37.19940 | -4.76422 | 7983 ft | 239 kts | 270° |
| 2026-04-24 20:02 | 37.19766 | -4.77779 | 7776 ft | 239 kts | 250° |
| 2026-04-24 20:02 | 37.18330 | -4.79823 | 7352 ft | 241 kts | 205° |
| 2026-04-24 20:02 | 37.16703 | -4.80203 | 7075 ft | 240 kts | 174° |
| 2026-04-24 20:02 | 37.15029 | -4.80041 | 7024 ft | 242 kts | 177° |
| 2026-04-24 20:03 | 37.13338 | -4.80013 | 7028 ft | 243 kts | 180° |
| 2026-04-24 20:03 | 37.11632 | -4.80032 | 7032 ft | 245 kts | 180° |
| 2026-04-24 20:03 | 37.09925 | -4.80054 | 7032 ft | 245 kts | 180° |
| 2026-04-24 20:03 | 37.08240 | -4.80067 | 7032 ft | 245 kts | 179° |
| 2026-04-24 20:04 | 37.06532 | -4.80057 | 7036 ft | 245 kts | 175° |
| 2026-04-24 20:04 | 37.04839 | -4.79836 | 6890 ft | 245 kts | 173° |
| 2026-04-24 20:04 | 37.03149 | -4.79594 | 6671 ft | 244 kts | 173° |
| 2026-04-24 20:04 | 37.01460 | -4.79348 | 6452 ft | 243 kts | 173° |
| 2026-04-24 20:05 | 36.99783 | -4.79101 | 6221 ft | 242 kts | 173° |
| 2026-04-24 20:05 | 36.98116 | -4.78856 | 5989 ft | 240 kts | 173° |
| 2026-04-24 20:05 | 36.96450 | -4.78609 | 5759 ft | 239 kts | 173° |
| 2026-04-24 20:05 | 36.94820 | -4.78367 | 5515 ft | 238 kts | 173° |
| 2026-04-24 20:06 | 36.93179 | -4.78125 | 5270 ft | 237 kts | 173° |
| 2026-04-24 20:06 | 36.91543 | -4.77887 | 5072 ft | 231 kts | 173° |
| 2026-04-24 20:06 | 36.90003 | -4.77663 | 5023 ft | 219 kts | 173° |
| 2026-04-24 20:06 | 36.88505 | -4.77436 | 5041 ft | 212 kts | 170° |
| 2026-04-24 20:07 | 36.87567 | -4.77121 | 4834 ft | 210 kts | 158° |
| 2026-04-24 20:07 | 36.85968 | -4.75775 | 4604 ft | 208 kts | 135° |
| 2026-04-24 20:07 | 36.84982 | -4.74488 | 4481 ft | 207 kts | 131° |
| 2026-04-24 20:07 | 36.84022 | -4.73146 | 4342 ft | 206 kts | 130° |
| 2026-04-24 20:08 | 36.83067 | -4.71799 | 4259 ft | 206 kts | 130° |
| 2026-04-24 20:08 | 36.82140 | -4.70493 | 4190 ft | 193 kts | 130° |
| 2026-04-24 20:08 | 36.81289 | -4.69295 | 4024 ft | 173 kts | 130° |
| 2026-04-24 20:08 | 36.80540 | -4.68239 | 3805 ft | 157 kts | 130° |
| 2026-04-24 20:09 | 36.79832 | -4.67242 | 3597 ft | 150 kts | 131° |
| 2026-04-24 20:09 | 36.79147 | -4.66278 | 3394 ft | 147 kts | 131° |
| 2026-04-24 20:09 | 36.78473 | -4.65330 | 3185 ft | 144 kts | 132° |
| 2026-04-24 20:09 | 36.77817 | -4.64406 | 2980 ft | 143 kts | 132° |
| 2026-04-24 20:10 | 36.77158 | -4.63480 | 2777 ft | 142 kts | 133° |
| 2026-04-24 20:10 | 36.76505 | -4.62561 | 2570 ft | 140 kts | 132° |
| 2026-04-24 20:10 | 36.75852 | -4.61646 | 2373 ft | 141 kts | 132° |
| 2026-04-24 20:10 | 36.75212 | -4.60743 | 2186 ft | 140 kts | 132° |
| 2026-04-24 20:11 | 36.74575 | -4.59835 | 1992 ft | 139 kts | 132° |
| 2026-04-24 20:11 | 36.73933 | -4.58937 | 1763 ft | 138 kts | 133° |
| 2026-04-24 20:11 | 36.73289 | -4.58044 | 1540 ft | 138 kts | 131° |
| 2026-04-24 20:11 | 36.72646 | -4.57152 | 1321 ft | 139 kts | 133° |
| 2026-04-24 20:12 | 36.72010 | -4.56245 | 1149 ft | 141 kts | 131° |
| 2026-04-24 20:12 | 36.71372 | -4.55318 | 993 ft | 140 kts | 133° |
| 2026-04-24 20:12 | 36.70725 | -4.54413 | 804 ft | 139 kts | 133° |
| 2026-04-24 20:12 | 36.70086 | -4.53520 | 624 ft | 137 kts | 133° |
| 2026-04-24 20:13 | 36.69449 | -4.52642 | 418 ft | 136 kts | 133° |
| 2026-04-24 20:13 | 36.68831 | -4.51778 | 235 ft | 134 kts | 133° |
| 2026-04-24 20:13 | 36.68211 | -4.50916 | 63 ft | 126 kts | 133° |
| 2026-04-24 20:13 | 36.67731 | -4.50246 | 54 ft | 66 kts | 131° |
| 2026-04-24 20:14 | 36.67563 | -4.50009 | 52 ft | 30 kts | 132° |
| 2026-04-24 20:14 | 36.67413 | -4.49803 | 49 ft | 32 kts | 131° |
| 2026-04-24 20:14 | 36.67320 | -4.49626 | 48 ft | 20 kts | 111° |
| 2026-04-24 20:14 | 36.67290 | -4.49480 | 42 ft | 14 kts | 102° |
| 2026-04-24 20:15 | 36.67288 | -4.49467 | 43 ft | 0 kts | 102° |
| 2026-04-24 20:16 | 36.67287 | -4.49466 | 43 ft | 1 kts | 102° |
| 2026-04-24 20:16 | 36.67284 | -4.49446 | 44 ft | 3 kts | 102° |
| 2026-04-24 20:17 | 36.67274 | -4.49387 | 40 ft | 8 kts | 101° |
| 2026-04-24 20:17 | 36.67279 | -4.49269 | 41 ft | 6 kts | 51° |
| 2026-04-24 20:17 | 36.67315 | -4.49245 | 42 ft | 6 kts | 12° |
| 2026-04-24 20:18 | 36.67320 | -4.49244 | 42 ft | 0 kts | 8° |
| 2026-04-24 20:18 | 36.67341 | -4.49265 | 41 ft | 2 kts | 319° |
| 2026-04-24 20:18 | 36.67357 | -4.49268 | 42 ft | 4 kts | 357° |
| 2026-04-24 20:18 | 36.67390 | -4.49263 | 42 ft | 4 kts | 10° |
| 2026-04-24 20:19 | 36.67418 | -4.49257 | 40 ft | 3 kts | 9° |
| 2026-04-24 20:19 | 36.67431 | -4.49254 | 42 ft | 2 kts | 9° |
| 2026-04-24 20:19 | 36.67434 | -4.49253 | 42 ft | 0 kts | 9° |
| 2026-04-24 20:20 | 36.67436 | -4.49253 | 42 ft | 0 kts | 9° |